Terminal Aerodrome Forecast
Issued by NWS Caribou, ME

Home | Current Version | Previous Version | Text Only | Print | Product List | Glossary On
Versions: 1 2 3 4 5 6 7 8 9 10 11 12 13 14 15 16 17 18 19
000
FTUS41 KCAR 282037 AAA
TAFBGR
TAF AMD
KBGR 282037Z 2821/2918 17012KT 5SM -TSRA SCT020 OVC035CB
     FM282200 22006KT 3SM -SHRA BKN050
     FM282300 23006KT P6SM VCTS BKN050CB
     FM290200 27005KT P6SM BKN250
     FM290500 34005KT P6SM BKN008
     FM290700 35005KT P6SM BKN015=

USA.gov is the U.S. government's official web portal to all federal, state and local government web resources and services.